Marmeleiro, Brazil
Current Conditions -  °F | °C
As of 12:00 PM on Tuesday 27 Jan 2015 (Local Time) from SBCH Reporting Station
Broken Clouds Broken Clouds  
Wind Chill: 28°   Ceiling: 4000
Heat Index: 29°   Visibility: 6mi
Dew Point: 19°   Wind: 5mph
Humidity: 58%   Direction: 360°N
Pressure: 30"   Gusts: NA
Location:  26.15°S, 53.03°W
Report Text: SBCH 271400Z 36004KT 9999 FEW020 BKN040 FEW050TCU 28/19 Q1016
Loading
Personal Weather Stations






























Interactive Weather Map New forecast layout! Learn more

10-Day Weather Forecast

Advertisements
Track Severe Weather on mobile